Time;durP1;ratioP1;P1;durP2;ratioP2;P2;SDS_P1;SDS_P2;PMS_P1;PMS_P2;Temp;Humidity;BMP_temperature;BMP_pressure;BME280_temperature;BME280_humidity;BME280_pressure;Samples;Min_cycle;Max_cycle;Signal;HPM_P1;HPM_P2
2023/07/23 00:00:32;;;;;;;6.30;4.20;;;16.90;99.90;;;;;;5114522;28;20174;-52
2023/07/23 00:02:57;;;;;;;6.95;4.60;;;16.90;99.90;;;;;;5116999;28;20537;-54
2023/07/23 00:05:24;;;;;;;5.80;4.30;;;17.00;99.90;;;;;;5117390;28;20177;-54
2023/07/23 00:07:59;;;;;;;5.32;4.43;;;16.90;99.90;;;;;;5117266;28;20213;-55
2023/07/23 00:10:25;;;;;;;6.15;4.18;;;17.00;99.90;;;;;;5117292;28;20168;-55
2023/07/23 00:12:52;;;;;;;4.53;4.13;;;17.00;99.90;;;;;;5117436;28;20601;-50
2023/07/23 00:15:18;;;;;;;5.85;4.30;;;16.90;99.90;;;;;;5117213;28;20177;-50
2023/07/23 00:17:44;;;;;;;5.05;3.95;;;16.90;99.90;;;;;;5117054;28;20184;-53
2023/07/23 00:20:11;;;;;;;6.90;4.85;;;16.90;99.90;;;;;;5117226;28;20225;-54
2023/07/23 00:22:37;;;;;;;6.28;4.65;;;16.90;99.90;;;;;;5116997;28;20224;-53
2023/07/23 00:25:04;;;;;;;5.60;4.20;;;16.90;99.90;;;;;;5116907;28;20209;-55
2023/07/23 00:27:29;;;;;;;6.18;4.45;;;16.90;99.90;;;;;;5116532;28;20206;-54
2023/07/23 00:29:56;;;;;;;5.05;4.55;;;16.80;99.90;;;;;;5116835;28;20252;-50
2023/07/23 00:32:22;;;;;;;6.72;4.63;;;16.90;99.90;;;;;;5116791;28;20286;-54
2023/07/23 00:34:48;;;;;;;5.57;3.88;;;16.80;99.90;;;;;;5116766;28;20230;-54
2023/07/23 00:37:13;;;;;;;7.22;4.47;;;16.80;99.90;;;;;;5116424;28;20550;-53
2023/07/23 00:39:39;;;;;;;6.95;4.07;;;16.80;99.90;;;;;;5116797;28;20176;-51
2023/07/23 00:42:05;;;;;;;6.13;4.32;;;16.80;99.90;;;;;;5116402;28;20176;-54
2023/07/23 00:44:31;;;;;;;5.60;4.18;;;16.80;99.90;;;;;;5116208;28;20252;-51
2023/07/23 00:46:58;;;;;;;5.70;4.10;;;16.90;99.90;;;;;;5116469;28;20177;-49
2023/07/23 00:49:24;;;;;;;4.82;4.13;;;16.90;99.90;;;;;;5116466;28;20254;-55
2023/07/23 00:51:52;;;;;;;5.07;4.38;;;16.90;99.90;;;;;;5116686;28;20568;-55
2023/07/23 00:54:18;;;;;;;5.25;3.78;;;16.80;99.90;;;;;;5116388;28;20537;-54
2023/07/23 00:56:44;;;;;;;8.10;4.38;;;16.70;99.90;;;;;;5116311;28;20173;-52
2023/07/23 00:59:11;;;;;;;5.30;4.60;;;16.70;99.90;;;;;;5116291;28;20173;-53
2023/07/23 01:01:36;;;;;;;4.75;4.13;;;16.80;99.90;;;;;;5116251;28;20307;-54
2023/07/23 01:04:03;;;;;;;7.40;4.20;;;16.90;99.90;;;;;;5116130;28;20287;-53
2023/07/23 01:06:31;;;;;;;5.25;4.03;;;16.90;99.90;;;;;;5116136;28;20611;-53
2023/07/23 01:08:58;;;;;;;5.60;4.38;;;16.90;99.90;;;;;;5116163;28;20304;-51
2023/07/23 01:11:25;;;;;;;4.95;3.97;;;16.80;99.90;;;;;;5115220;28;20184;-55
2023/07/23 01:13:51;;;;;;;7.25;4.10;;;16.90;99.90;;;;;;5115003;28;20516;-50
2023/07/23 01:16:18;;;;;;;6.88;4.13;;;16.90;99.90;;;;;;5115992;28;20188;-54
2023/07/23 01:18:44;;;;;;;5.60;4.05;;;16.90;99.90;;;;;;5115756;28;20701;-52
2023/07/23 01:21:10;;;;;;;6.00;4.07;;;16.90;99.90;;;;;;5115859;28;20169;-52
2023/07/23 01:23:36;;;;;;;4.10;3.70;;;16.90;99.90;;;;;;5115655;28;20200;-50
2023/07/23 01:26:03;;;;;;;7.70;4.35;;;16.90;99.90;;;;;;5115680;28;20169;-54
2023/07/23 01:28:29;;;;;;;4.47;3.78;;;16.90;99.90;;;;;;5115651;28;20183;-52
2023/07/23 01:30:55;;;;;;;6.50;4.05;;;16.90;99.90;;;;;;5115954;28;20244;-51
2023/07/23 01:33:22;;;;;;;5.07;4.10;;;16.90;99.90;;;;;;5115653;28;20242;-54
2023/07/23 01:35:54;;;;;;;4.93;3.80;;;16.90;99.90;;;;;;5115499;28;20201;-54
2023/07/23 01:38:21;;;;;;;4.97;3.97;;;16.80;99.90;;;;;;5115589;28;20176;-50
2023/07/23 01:40:47;;;;;;;4.38;3.97;;;16.50;99.90;;;;;;5115525;28;20526;-53
2023/07/23 01:43:13;;;;;;;4.75;3.70;;;16.40;99.90;;;;;;5115439;28;20642;-52
2023/07/23 01:45:43;;;;;;;5.68;3.90;;;16.50;99.90;;;;;;5115303;28;20693;-51
2023/07/23 01:48:09;;;;;;;5.57;3.65;;;16.50;99.90;;;;;;5115376;28;20169;-51
2023/07/23 01:50:34;;;;;;;6.78;3.90;;;16.60;99.90;;;;;;5115291;28;20534;-54
2023/07/23 01:53:00;;;;;;;7.28;4.10;;;16.60;99.90;;;;;;5114942;28;20173;-53
2023/07/23 01:55:26;;;;;;;6.00;4.18;;;16.60;99.90;;;;;;5115111;28;20173;-51
2023/07/23 01:57:51;;;;;;;5.97;3.63;;;16.50;99.90;;;;;;5115139;28;20180;-53
2023/07/23 02:00:19;;;;;;;5.43;3.40;;;16.60;99.90;;;;;;5115142;28;20216;-51
2023/07/23 02:02:44;;;;;;;6.63;3.88;;;16.70;99.90;;;;;;5114671;28;20542;-54
2023/07/23 02:05:10;;;;;;;4.82;3.60;;;16.60;99.90;;;;;;5114891;28;20217;-53
2023/07/23 02:07:36;;;;;;;6.78;3.72;;;16.60;99.90;;;;;;5114889;28;20168;-54
2023/07/23 02:10:02;;;;;;;4.15;3.70;;;16.70;99.90;;;;;;5114901;28;20169;-52
2023/07/23 02:12:27;;;;;;;6.15;3.42;;;16.70;99.90;;;;;;5114888;28;20184;-52
2023/07/23 02:14:53;;;;;;;8.05;3.88;;;16.60;99.90;;;;;;5114818;28;20174;-53
2023/07/23 02:17:19;;;;;;;6.88;3.55;;;16.70;99.90;;;;;;5114791;28;20665;-53
2023/07/23 02:19:45;;;;;;;6.20;4.00;;;16.70;99.90;;;;;;5114687;28;20316;-53
2023/07/23 02:22:11;;;;;;;6.60;3.70;;;16.60;99.90;;;;;;5114767;28;20177;-54
2023/07/23 02:24:37;;;;;;;4.72;3.60;;;16.70;99.90;;;;;;5114177;28;20201;-49
2023/07/23 02:27:03;;;;;;;5.18;3.70;;;16.70;99.90;;;;;;5114273;28;20653;-53
2023/07/23 02:29:28;;;;;;;6.50;3.85;;;16.70;99.90;;;;;;5114285;28;20189;-52
2023/07/23 02:31:54;;;;;;;7.13;3.97;;;16.70;99.90;;;;;;5114163;28;20530;-52
2023/07/23 02:34:20;;;;;;;4.72;3.30;;;16.70;99.90;;;;;;5114453;28;20181;-52
2023/07/23 02:36:46;;;;;;;5.85;3.67;;;16.70;99.90;;;;;;5113146;28;20176;-50
2023/07/23 02:39:12;;;;;;;5.82;3.47;;;16.70;99.90;;;;;;5114376;28;20218;-54
2023/07/23 02:41:37;;;;;;;4.53;3.45;;;16.70;99.90;;;;;;5114361;28;20173;-51
2023/07/23 02:44:03;;;;;;;6.55;3.60;;;16.80;99.90;;;;;;5114266;28;20209;-50
2023/07/23 02:46:29;;;;;;;9.20;3.38;;;16.70;99.90;;;;;;5113932;28;20169;-53
2023/07/23 02:48:55;;;;;;;7.45;3.85;;;16.70;99.90;;;;;;5114539;28;20174;-54
2023/07/23 02:51:21;;;;;;;6.20;4.00;;;16.70;99.90;;;;;;5114214;28;20614;-54
2023/07/23 02:53:47;;;;;;;6.25;3.55;;;16.80;99.90;;;;;;5114178;28;20577;-54
2023/07/23 02:56:13;;;;;;;5.45;3.47;;;16.70;99.90;;;;;;5112915;28;20508;-55
2023/07/23 02:58:39;;;;;;;7.30;3.92;;;16.80;99.90;;;;;;5114127;28;20180;-55
2023/07/23 03:01:04;;;;;;;4.60;3.85;;;16.80;99.90;;;;;;5114075;28;20177;-56
2023/07/23 03:03:30;;;;;;;5.65;3.78;;;16.80;99.90;;;;;;5113698;28;20208;-55
2023/07/23 03:05:55;;;;;;;6.32;3.75;;;16.80;99.90;;;;;;5114022;28;20180;-54
2023/07/23 03:08:21;;;;;;;6.22;3.60;;;16.80;99.90;;;;;;5114038;28;20217;-54
2023/07/23 03:10:47;;;;;;;4.90;3.58;;;16.90;99.90;;;;;;5113868;28;20209;-54
2023/07/23 03:13:13;;;;;;;8.60;4.18;;;16.80;99.90;;;;;;5112871;28;20177;-55
2023/07/23 03:15:39;;;;;;;8.35;3.58;;;16.80;99.90;;;;;;5113913;28;20169;-54
2023/07/23 03:18:04;;;;;;;5.72;3.67;;;16.70;99.90;;;;;;5113863;28;20173;-53
2023/07/23 03:20:30;;;;;;;5.82;3.85;;;16.80;99.90;;;;;;5113889;28;20189;-52
2023/07/23 03:22:56;;;;;;;5.22;3.83;;;16.90;99.90;;;;;;5113710;28;20186;-52
2023/07/23 03:25:22;;;;;;;4.95;3.80;;;16.90;99.90;;;;;;5113829;28;20174;-53
2023/07/23 03:27:47;;;;;;;6.20;4.00;;;16.80;99.90;;;;;;5113546;28;20176;-51
2023/07/23 03:30:13;;;;;;;7.50;3.33;;;16.90;99.90;;;;;;5113841;28;20553;-51
2023/07/23 03:32:40;;;;;;;6.57;3.30;;;16.90;99.90;;;;;;5113804;28;20181;-52
2023/07/23 03:35:06;;;;;;;4.03;3.22;;;16.90;99.90;;;;;;5113823;28;20174;-53
2023/07/23 03:37:32;;;;;;;6.47;3.50;;;16.90;99.90;;;;;;5117619;28;20622;-49
2023/07/23 03:39:57;;;;;;;5.80;3.35;;;16.80;99.90;;;;;;5117829;28;20222;-53
2023/07/23 03:42:26;;;;;;;6.97;3.75;;;16.70;99.90;;;;;;5117810;28;20181;-51
2023/07/23 03:44:51;;;;;;;5.22;3.53;;;16.80;99.90;;;;;;5117709;28;20228;-54
2023/07/23 03:47:19;;;;;;;5.53;3.90;;;16.80;99.90;;;;;;5118012;28;20566;-52
2023/07/23 03:49:46;;;;;;;6.32;3.53;;;16.80;99.90;;;;;;5117648;28;20181;-53
2023/07/23 03:52:12;;;;;;;7.18;3.35;;;16.80;99.90;;;;;;5117591;28;20174;-51
2023/07/23 03:54:38;;;;;;;5.50;3.47;;;16.80;99.90;;;;;;5117578;28;20242;-54
2023/07/23 03:57:04;;;;;;;6.45;3.50;;;16.80;99.90;;;;;;5117514;28;20185;-53
2023/07/23 03:59:37;;;;;;;7.07;3.17;;;16.90;99.90;;;;;;5117433;28;20177;-53
2023/07/23 04:02:03;;;;;;;5.78;3.58;;;16.90;99.90;;;;;;5117180;28;20518;-52
2023/07/23 04:04:29;;;;;;;6.00;3.30;;;16.90;99.90;;;;;;5117285;28;20284;-53
2023/07/23 04:06:54;;;;;;;3.63;3.17;;;16.90;99.90;;;;;;5117317;28;20178;-51
2023/07/23 04:09:22;;;;;;;3.42;2.83;;;16.90;99.90;;;;;;5117273;28;20522;-53
2023/07/23 04:11:47;;;;;;;6.75;3.13;;;17.00;99.90;;;;;;5116944;28;20177;-50
2023/07/23 04:14:13;;;;;;;8.75;3.20;;;16.90;99.90;;;;;;5117211;28;20570;-53
2023/07/23 04:16:38;;;;;;;5.82;3.58;;;17.00;99.90;;;;;;5117184;28;20192;-53
2023/07/23 04:19:04;;;;;;;5.10;3.92;;;16.90;99.90;;;;;;5116994;28;20236;-49
2023/07/23 04:21:30;;;;;;;5.47;3.35;;;17.00;99.90;;;;;;5117095;28;20252;-49
2023/07/23 04:23:57;;;;;;;5.63;3.58;;;17.00;99.90;;;;;;5116614;28;20201;-50
2023/07/23 04:26:26;;;;;;;5.45;3.47;;;17.00;99.90;;;;;;5116987;28;20191;-52
2023/07/23 04:28:51;;;;;;;6.28;3.67;;;16.90;99.90;;;;;;5116903;28;20173;-51
2023/07/23 04:31:18;;;;;;;5.07;3.58;;;17.00;99.90;;;;;;5116544;28;20173;-54
2023/07/23 04:33:44;;;;;;;4.60;3.40;;;16.90;99.90;;;;;;5116808;28;20174;-53
2023/07/23 04:36:12;;;;;;;3.83;2.80;;;17.10;99.90;;;;;;5116786;28;20170;-53
2023/07/23 04:38:38;;;;;;;5.25;3.50;;;17.00;99.90;;;;;;5116675;28;20202;-52
2023/07/23 04:41:04;;;;;;;4.95;3.92;;;17.10;99.90;;;;;;5116643;28;20250;-53
2023/07/23 04:43:29;;;;;;;5.88;3.50;;;17.00;99.90;;;;;;5116648;28;20654;-54
2023/07/23 04:45:55;;;;;;;7.32;3.60;;;17.00;99.90;;;;;;5116346;28;20679;-53
2023/07/23 04:48:20;;;;;;;6.90;3.88;;;16.90;99.90;;;;;;5116564;28;20173;-53
2023/07/23 04:50:57;;;;;;;5.20;3.95;;;16.70;99.90;;;;;;5116482;28;20169;-51
2023/07/23 04:53:23;;;;;;;6.28;4.40;;;16.60;99.90;;;;;;5116550;28;20165;-50
2023/07/23 04:55:58;;;;;;;6.10;3.75;;;16.60;99.90;;;;;;5116366;28;20174;-53
2023/07/23 04:58:25;;;;;;;4.22;3.65;;;16.50;99.90;;;;;;5116274;28;20173;-52
2023/07/23 05:00:51;;;;;;;4.78;4.07;;;16.50;99.90;;;;;;5116387;28;20172;-52
2023/07/23 05:03:17;;;;;;;6.55;4.15;;;16.40;99.90;;;;;;5115836;28;20213;-52
2023/07/23 05:05:46;;;;;;;5.50;3.92;;;16.50;99.90;;;;;;5116225;28;20664;-49
2023/07/23 05:08:11;;;;;;;5.35;4.30;;;16.40;99.90;;;;;;5116023;28;20623;-53
2023/07/23 05:10:38;;;;;;;4.88;4.30;;;16.30;99.90;;;;;;5116130;28;20184;-51
2023/07/23 05:13:03;;;;;;;5.32;4.15;;;16.30;99.90;;;;;;5115982;28;20265;-52
2023/07/23 05:15:29;;;;;;;7.65;3.72;;;16.30;99.90;;;;;;5115993;28;20618;-53
2023/07/23 05:17:55;;;;;;;6.28;4.40;;;16.20;99.90;;;;;;5115991;28;20174;-53
2023/07/23 05:20:21;;;;;;;5.57;4.00;;;16.10;99.90;;;;;;5116134;28;20221;-54
2023/07/23 05:22:46;;;;;;;6.65;4.00;;;16.10;99.90;;;;;;5115838;28;20181;-53
2023/07/23 05:25:12;;;;;;;5.78;4.47;;;16.00;99.90;;;;;;5115771;28;20674;-53
2023/07/23 05:27:38;;;;;;;8.35;4.30;;;15.90;99.90;;;;;;5114604;28;20181;-52
2023/07/23 05:30:05;;;;;;;5.03;4.07;;;15.90;99.90;;;;;;5115157;28;20199;-54
2023/07/23 05:32:32;;;;;;;5.55;4.38;;;16.00;99.90;;;;;;5114840;28;20173;-54
2023/07/23 05:34:58;;;;;;;7.07;4.22;;;16.00;99.90;;;;;;5115087;28;20264;-53
2023/07/23 05:37:24;;;;;;;5.88;4.40;;;16.10;99.90;;;;;;5115093;28;20207;-53
2023/07/23 05:39:52;;;;;;;5.13;4.13;;;16.00;99.90;;;;;;5113403;28;20630;-54
2023/07/23 05:42:17;;;;;;;5.90;4.10;;;16.10;99.90;;;;;;5114718;28;20248;-54
2023/07/23 05:44:43;;;;;;;6.35;4.93;;;16.10;99.90;;;;;;5114593;28;20738;-54
2023/07/23 05:47:09;;;;;;;4.78;4.20;;;16.20;99.90;;;;;;5114441;28;20208;-52
2023/07/23 05:49:34;;;;;;;6.82;4.47;;;16.20;99.90;;;;;;5111359;28;20185;-52
2023/07/23 05:52:00;;;;;;;4.75;4.07;;;16.20;99.90;;;;;;5113743;28;20241;-51
2023/07/23 05:54:26;;;;;;;6.63;4.95;;;16.20;99.90;;;;;;5115374;28;20173;-54
2023/07/23 05:56:52;;;;;;;5.57;4.68;;;16.20;99.90;;;;;;5115068;28;20165;-53
2023/07/23 05:59:18;;;;;;;6.05;4.65;;;16.30;99.90;;;;;;5114263;28;20282;-53
2023/07/23 06:01:44;;;;;;;4.97;4.45;;;16.30;99.90;;;;;;5114855;28;20629;-52
2023/07/23 06:04:10;;;;;;;5.40;4.50;;;16.30;99.90;;;;;;5114414;28;20201;-53
2023/07/23 06:06:35;;;;;;;5.70;4.72;;;16.20;99.90;;;;;;5114756;28;20181;-51
2023/07/23 06:09:01;;;;;;;7.97;5.65;;;16.20;99.90;;;;;;5115069;28;20603;-53
2023/07/23 06:11:27;;;;;;;8.65;5.22;;;16.10;99.90;;;;;;5114830;28;20257;-50
2023/07/23 06:13:52;;;;;;;9.50;5.28;;;16.10;99.90;;;;;;5079408;28;20235;-52
2023/07/23 06:16:18;;;;;;;6.57;5.63;;;16.00;99.90;;;;;;5114647;28;20180;-53
2023/07/23 06:18:44;;;;;;;6.88;5.18;;;15.90;99.90;;;;;;5114380;28;20305;-54
2023/07/23 06:21:10;;;;;;;8.05;5.53;;;15.90;99.90;;;;;;5114371;28;20185;-52
2023/07/23 06:23:35;;;;;;;7.40;5.30;;;15.90;99.90;;;;;;5114350;28;20265;-53
2023/07/23 06:26:01;;;;;;;7.70;5.60;;;15.90;99.90;;;;;;5114341;28;20177;-53
2023/07/23 06:28:27;;;;;;;6.22;5.38;;;15.90;99.90;;;;;;5114404;28;20177;-52
2023/07/23 06:30:53;;;;;;;6.95;6.25;;;15.90;99.90;;;;;;5114346;28;20267;-54
2023/07/23 06:33:20;;;;;;;8.25;5.90;;;15.80;99.90;;;;;;5114348;28;20252;-52
2023/07/23 06:35:46;;;;;;;6.15;5.50;;;15.90;99.90;;;;;;5114159;28;20226;-53
2023/07/23 06:38:12;;;;;;;6.57;5.70;;;15.90;99.90;;;;;;5113810;28;20260;-53
2023/07/23 06:40:44;;;;;;;8.90;6.07;;;16.00;99.90;;;;;;5114102;28;20252;-53
2023/07/23 06:43:10;;;;;;;7.55;6.38;;;15.80;99.90;;;;;;5114002;28;20162;-52
2023/07/23 06:45:35;;;;;;;6.80;6.10;;;15.90;99.90;;;;;;5113416;28;20180;-51
2023/07/23 06:48:01;;;;;;;7.93;5.97;;;15.80;99.90;;;;;;5112179;28;20549;-53
2023/07/23 06:50:27;;;;;;;8.60;6.97;;;15.80;99.90;;;;;;5112864;28;20219;-51
2023/07/23 06:52:52;;;;;;;7.38;6.35;;;15.80;99.90;;;;;;5112017;28;20181;-55
2023/07/23 06:55:18;;;;;;;7.00;5.82;;;15.80;99.90;;;;;;5112021;28;20385;-53
2023/07/23 06:57:43;;;;;;;9.13;6.50;;;15.80;99.90;;;;;;5112003;28;20173;-54
2023/07/23 07:00:12;;;;;;;10.07;6.45;;;15.80;99.90;;;;;;5112051;28;20184;-53
2023/07/23 07:02:37;;;;;;;9.20;6.95;;;15.90;99.90;;;;;;5113224;28;20180;-52
2023/07/23 07:05:03;;;;;;;10.02;7.25;;;15.90;99.90;;;;;;5113192;28;20201;-53
2023/07/23 07:07:29;;;;;;;7.60;6.35;;;16.00;99.90;;;;;;5113084;28;20598;-53
2023/07/23 07:09:54;;;;;;;9.30;6.78;;;15.90;99.90;;;;;;5113335;28;20173;-52
2023/07/23 07:12:20;;;;;;;7.18;6.10;;;16.00;99.90;;;;;;5133800;27;20176;-54
2023/07/23 07:14:46;;;;;;;8.65;6.63;;;16.00;99.90;;;;;;5133741;27;20177;-51
2023/07/23 07:17:11;;;;;;;7.40;6.30;;;16.10;99.90;;;;;;5133784;28;20448;-54
2023/07/23 07:19:37;;;;;;;7.93;6.70;;;15.90;99.90;;;;;;5133722;28;20227;-53
2023/07/23 07:22:03;;;;;;;8.63;6.25;;;15.90;99.90;;;;;;5133777;28;20169;-50
2023/07/23 07:24:29;;;;;;;7.03;6.22;;;15.90;99.90;;;;;;5133633;27;20204;-54
2023/07/23 07:26:54;;;;;;;6.80;5.75;;;15.90;99.90;;;;;;5133612;28;20184;-55
2023/07/23 07:29:20;;;;;;;10.00;7.00;;;16.10;99.90;;;;;;5133797;28;20172;-52
2023/07/23 07:31:48;;;;;;;7.35;6.65;;;16.10;99.90;;;;;;5133371;28;20173;-54
2023/07/23 07:34:13;;;;;;;9.50;6.85;;;16.10;99.90;;;;;;5133579;28;20200;-51
2023/07/23 07:36:39;;;;;;;8.18;6.72;;;16.00;99.90;;;;;;5133700;28;20199;-53
2023/07/23 07:39:05;;;;;;;7.82;6.68;;;16.00;99.90;;;;;;5133850;28;20633;-53
2023/07/23 07:41:31;;;;;;;8.27;7.05;;;16.00;99.90;;;;;;5133538;28;20179;-51
2023/07/23 07:43:56;;;;;;;6.93;6.22;;;16.00;99.90;;;;;;5133162;28;20197;-53
2023/07/23 07:46:23;;;;;;;7.18;6.47;;;16.10;99.90;;;;;;5133633;28;20177;-53
2023/07/23 07:48:48;;;;;;;7.97;7.05;;;16.10;99.90;;;;;;5133505;28;20564;-51
2023/07/23 07:51:14;;;;;;;7.45;6.25;;;16.10;99.90;;;;;;5133401;28;20180;-52
2023/07/23 07:53:40;;;;;;;7.55;6.55;;;16.10;99.90;;;;;;5133458;28;20171;-51
2023/07/23 07:56:12;;;;;;;8.85;6.78;;;16.10;99.90;;;;;;5133445;28;20614;-52
2023/07/23 07:58:38;;;;;;;7.97;6.47;;;16.20;99.90;;;;;;5133404;28;20157;-53
2023/07/23 08:01:04;;;;;;;7.88;7.07;;;16.20;99.90;;;;;;5133348;28;20221;-53
2023/07/23 08:03:32;;;;;;;8.77;7.03;;;16.20;99.90;;;;;;5133136;28;20268;-52
2023/07/23 08:05:58;;;;;;;7.55;6.28;;;16.20;99.90;;;;;;5131917;28;20529;-52
2023/07/23 08:08:33;;;;;;;7.57;6.65;;;16.20;99.90;;;;;;5133622;28;20173;-53
2023/07/23 08:11:00;;;;;;;6.93;6.07;;;16.20;99.90;;;;;;5133286;28;20167;-53
2023/07/23 08:13:27;;;;;;;8.57;6.15;;;16.20;99.90;;;;;;5133117;28;20173;-52
2023/07/23 08:15:54;;;;;;;8.40;6.85;;;16.20;99.90;;;;;;5133010;28;20179;-53
2023/07/23 08:18:20;;;;;;;7.05;6.35;;;16.30;99.90;;;;;;5132991;28;20256;-53
2023/07/23 08:20:46;;;;;;;7.75;6.05;;;16.30;99.90;;;;;;5133299;27;20169;-53
2023/07/23 08:23:12;;;;;;;7.80;6.47;;;16.40;99.90;;;;;;5136457;27;20188;-53
2023/07/23 08:25:38;;;;;;;6.72;6.05;;;16.50;99.90;;;;;;5136901;27;20165;-52
2023/07/23 08:28:07;;;;;;;8.18;6.70;;;16.60;99.90;;;;;;5136638;27;20206;-53
2023/07/23 08:30:32;;;;;;;7.00;6.00;;;16.50;99.90;;;;;;5136419;27;20165;-51
2023/07/23 08:33:00;;;;;;;7.13;5.47;;;16.40;99.90;;;;;;5136669;27;20173;-54
2023/07/23 08:35:27;;;;;;;6.38;5.68;;;16.40;99.90;;;;;;5136604;27;20179;-51
2023/07/23 08:37:55;;;;;;;5.93;5.20;;;16.50;99.90;;;;;;5136573;27;20169;-51
2023/07/23 08:40:23;;;;;;;7.32;5.22;;;16.40;99.90;;;;;;5136493;27;20172;-51
2023/07/23 08:43:14;;;;;;;6.72;5.55;;;16.40;99.90;;;;;;5136530;27;20247;-54
2023/07/23 08:45:46;;;;;;;6.13;5.45;;;16.40;99.90;;;;;;5136740;27;20169;-53
2023/07/23 08:48:19;;;;;;;5.88;5.30;;;16.40;99.90;;;;;;5136325;27;20243;-53
2023/07/23 08:50:50;;;;;;;6.72;5.53;;;16.40;99.90;;;;;;5136390;27;20263;-51
2023/07/23 08:53:17;;;;;;;5.80;5.18;;;16.50;99.90;;;;;;5136317;27;20236;-53
2023/07/23 08:55:45;;;;;;;6.55;5.95;;;16.60;99.90;;;;;;5136276;27;20173;-51
2023/07/23 08:58:16;;;;;;;7.30;5.97;;;16.60;99.90;;;;;;5135990;27;20546;-53
2023/07/23 09:00:44;;;;;;;6.90;5.82;;;16.60;99.90;;;;;;5135944;27;20161;-51
2023/07/23 09:03:14;;;;;;;7.70;5.75;;;16.70;99.90;;;;;;5136010;27;20168;-50
2023/07/23 09:05:40;;;;;;;6.93;5.03;;;16.90;99.90;;;;;;5136165;27;20165;-53
2023/07/23 09:08:07;;;;;;;6.90;4.90;;;16.90;99.90;;;;;;5135869;27;20237;-50
2023/07/23 09:10:33;;;;;;;5.80;5.20;;;16.70;99.90;;;;;;5136000;27;20221;-52
2023/07/23 09:13:07;;;;;;;5.68;5.00;;;16.90;99.90;;;;;;5135577;27;20651;-52
2023/07/23 09:15:33;;;;;;;6.28;5.68;;;16.80;99.90;;;;;;5136054;27;20156;-52
2023/07/23 09:17:59;;;;;;;6.60;5.45;;;16.90;99.90;;;;;;5135827;27;20183;-54
2023/07/23 09:20:25;;;;;;;6.93;5.38;;;17.00;99.90;;;;;;5135374;27;20649;-53
2023/07/23 09:22:51;;;;;;;5.90;5.30;;;17.10;99.90;;;;;;5127953;27;20203;-53
2023/07/23 09:25:18;;;;;;;7.30;5.25;;;17.00;99.90;;;;;;5114363;28;20334;-52
2023/07/23 09:27:44;;;;;;;5.75;5.10;;;17.00;99.90;;;;;;5114895;28;20173;-49
2023/07/23 09:30:19;;;;;;;6.63;5.93;;;17.10;99.90;;;;;;5114978;28;20180;-52
2023/07/23 09:32:58;;;;;;;6.78;5.72;;;17.20;99.90;;;;;;5114093;28;20255;-50
2023/07/23 09:35:28;;;;;;;6.40;5.65;;;17.30;99.90;;;;;;5114624;28;20260;-52
2023/07/23 09:37:57;;;;;;;6.10;5.50;;;17.40;99.90;;;;;;5114579;28;20180;-52
2023/07/23 09:40:33;;;;;;;6.72;5.50;;;17.50;99.90;;;;;;5114526;28;20170;-53
2023/07/23 09:43:00;;;;;;;6.78;6.03;;;17.60;99.90;;;;;;5114609;28;20537;-50
2023/07/23 09:45:26;;;;;;;5.57;4.97;;;17.70;99.90;;;;;;5114393;28;20669;-53
2023/07/23 09:47:53;;;;;;;7.10;5.82;;;17.80;99.90;;;;;;5114266;27;20647;-52
2023/07/23 09:50:19;;;;;;;8.65;5.45;;;17.80;99.90;;;;;;5112629;28;20173;-49
2023/07/23 09:52:49;;;;;;;5.90;4.97;;;17.80;99.90;;;;;;5113039;28;20245;-51
2023/07/23 09:55:16;;;;;;;6.40;5.40;;;17.90;99.90;;;;;;5114401;28;20189;-51
2023/07/23 09:57:45;;;;;;;8.35;5.75;;;17.90;99.90;;;;;;5113798;28;20646;-51
2023/07/23 10:00:12;;;;;;;6.43;4.90;;;17.90;99.90;;;;;;5114124;28;20223;-53
2023/07/23 10:02:39;;;;;;;5.80;5.05;;;18.00;99.90;;;;;;5113388;28;20216;-53
2023/07/23 10:05:06;;;;;;;7.53;5.50;;;18.30;99.90;;;;;;5113200;27;20292;-49
2023/07/23 10:07:33;;;;;;;5.72;4.78;;;18.50;99.90;;;;;;5113838;28;20184;-51
2023/07/23 10:10:00;;;;;;;5.97;4.93;;;18.70;99.90;;;;;;5113915;28;20626;-52
2023/07/23 10:12:25;;;;;;;5.80;4.90;;;18.90;99.90;;;;;;5113690;28;20634;-54
2023/07/23 10:14:51;;;;;;;7.25;4.95;;;19.00;99.90;;;;;;5113097;28;20187;-53
2023/07/23 10:17:18;;;;;;;6.00;5.03;;;19.00;99.90;;;;;;5112254;28;20230;-51
2023/07/23 10:19:45;;;;;;;7.75;5.05;;;19.00;99.90;;;;;;5110488;28;20227;-50
2023/07/23 10:22:11;;;;;;;5.53;4.20;;;19.00;99.90;;;;;;5109812;28;20181;-55
2023/07/23 10:24:40;;;;;;;5.32;4.43;;;18.90;99.90;;;;;;5112411;28;20238;-52
2023/07/23 10:27:16;;;;;;;5.25;4.20;;;18.90;99.90;;;;;;5113744;28;20173;-49
2023/07/23 10:30:18;;;;;;;5.75;4.85;;;18.80;99.90;;;;;;5113732;28;20264;-53
2023/07/23 10:32:45;;;;;;;4.82;4.40;;;18.90;99.90;;;;;;5113483;27;20575;-53
2023/07/23 10:35:10;;;;;;;4.85;4.38;;;18.80;99.90;;;;;;5112160;28;20177;-52
2023/07/23 10:37:36;;;;;;;4.63;4.20;;;19.00;99.90;;;;;;5113491;28;20626;-50
2023/07/23 10:40:03;;;;;;;5.05;4.47;;;19.20;99.90;;;;;;5114018;28;20173;-54
2023/07/23 10:42:34;;;;;;;4.78;4.28;;;19.20;99.90;;;;;;5113654;28;20169;-53
2023/07/23 10:45:22;;;;;;;4.50;4.03;;;19.30;99.90;;;;;;5113348;28;20193;-51
2023/07/23 10:47:49;;;;;;;5.22;4.25;;;19.30;99.90;;;;;;5113631;28;20161;-52
2023/07/23 10:50:16;;;;;;;5.45;4.22;;;19.20;99.90;;;;;;5113473;28;20169;-51
2023/07/23 10:52:46;;;;;;;5.15;4.32;;;19.20;99.90;;;;;;5113517;28;20174;-50
2023/07/23 10:55:12;;;;;;;5.72;3.90;;;19.10;99.90;;;;;;5113860;28;20233;-51
2023/07/23 10:57:41;;;;;;;5.68;4.50;;;19.20;99.90;;;;;;5113412;28;20185;-50
2023/07/23 11:00:27;;;;;;;5.13;4.40;;;19.10;99.90;;;;;;5113301;28;20610;-51
2023/07/23 11:02:55;;;;;;;4.82;4.10;;;19.20;99.90;;;;;;5113283;28;20188;-50
2023/07/23 11:05:21;;;;;;;5.68;4.18;;;19.20;99.90;;;;;;5113177;28;20196;-51
2023/07/23 11:08:23;;;;;;;4.07;3.67;;;19.30;99.90;;;;;;5113210;28;20180;-48
2023/07/23 11:11:05;;;;;;;3.80;3.40;;;19.40;99.90;;;;;;5079721;28;20184;-52
2023/07/23 11:13:33;;;;;;;4.65;4.00;;;19.50;99.90;;;;;;5113240;28;20181;-53
2023/07/23 11:15:59;;;;;;;5.88;3.55;;;19.60;99.90;;;;;;5113195;28;20212;-53
2023/07/23 11:18:28;;;;;;;4.05;3.45;;;19.60;99.90;;;;;;5113020;28;20177;-51
2023/07/23 11:20:57;;;;;;;4.20;3.35;;;19.70;99.90;;;;;;5113179;28;20177;-52
2023/07/23 11:23:25;;;;;;;4.55;4.07;;;19.80;99.90;;;;;;5112975;28;20201;-53
2023/07/23 11:25:51;;;;;;;4.22;3.85;;;20.10;99.90;;;;;;5113023;28;20648;-52
2023/07/23 11:28:19;;;;;;;3.97;3.58;;;20.00;99.90;;;;;;5113122;28;20165;-49
2023/07/23 11:30:48;;;;;;;5.78;4.07;;;20.10;99.90;;;;;;5112994;28;20234;-51
2023/07/23 11:33:13;;;;;;;5.18;3.45;;;20.00;99.90;;;;;;5112952;28;20231;-53
2023/07/23 11:35:39;;;;;;;4.03;3.35;;;19.90;99.90;;;;;;5111438;28;20169;-49
2023/07/23 11:38:05;;;;;;;4.85;3.25;;;20.00;99.90;;;;;;5112929;28;20177;-51
2023/07/23 11:40:31;;;;;;;4.28;3.40;;;19.90;99.90;;;;;;5112940;28;20169;-51
2023/07/23 11:43:05;;;;;;;3.97;3.45;;;19.90;99.90;;;;;;5112848;28;20169;-52
2023/07/23 11:45:31;;;;;;;3.72;3.20;;;20.00;99.90;;;;;;5112639;28;20181;-53
2023/07/23 11:47:56;;;;;;;5.20;3.40;;;20.10;99.90;;;;;;5113131;28;20227;-48
2023/07/23 11:50:24;;;;;;;3.85;3.45;;;20.20;99.90;;;;;;5112809;28;20500;-50
2023/07/23 11:52:51;;;;;;;4.45;3.38;;;20.40;99.90;;;;;;5112796;28;20177;-50
2023/07/23 11:55:27;;;;;;;4.13;3.00;;;20.60;99.90;;;;;;5113091;28;20303;-51
2023/07/23 11:57:57;;;;;;;4.07;3.05;;;20.80;99.90;;;;;;5115851;28;20169;-53
2023/07/23 12:00:30;;;;;;;5.18;3.40;;;20.80;99.90;;;;;;5116746;28;20519;-51
2023/07/23 12:02:59;;;;;;;4.25;3.42;;;21.00;99.90;;;;;;5116662;28;20483;-51
2023/07/23 12:05:25;;;;;;;6.25;3.47;;;21.30;99.90;;;;;;5116557;28;20557;-51
2023/07/23 12:07:52;;;;;;;5.43;2.92;;;21.30;99.90;;;;;;5116580;28;20248;-53
2023/07/23 12:10:17;;;;;;;6.20;3.55;;;21.50;99.90;;;;;;5116502;28;20178;-52
2023/07/23 12:12:47;;;;;;;3.42;2.83;;;21.50;99.90;;;;;;5116731;28;20179;-48
2023/07/23 12:15:14;;;;;;;4.18;2.88;;;21.30;99.90;;;;;;5116446;28;20687;-50
2023/07/23 12:17:40;;;;;;;3.30;3.00;;;21.00;99.90;;;;;;5116334;28;20597;-54
2023/07/23 12:20:14;;;;;;;3.33;3.08;;;20.80;99.90;;;;;;5116608;28;20625;-51
2023/07/23 12:22:56;;;;;;;3.83;3.42;;;21.00;99.90;;;;;;5116604;28;20618;-50
2023/07/23 12:25:24;;;;;;;4.68;3.22;;;21.20;99.90;;;;;;5116256;27;20205;-52
2023/07/23 12:27:50;;;;;;;4.07;3.28;;;21.30;99.90;;;;;;5116149;27;20174;-52
2023/07/23 12:30:17;;;;;;;3.42;3.10;;;21.30;99.90;;;;;;5116087;28;20176;-54
2023/07/23 12:32:45;;;;;;;4.20;3.05;;;21.40;99.90;;;;;;5116114;28;20173;-51
2023/07/23 12:35:10;;;;;;;3.75;3.08;;;21.40;99.90;;;;;;5116029;28;20183;-50
2023/07/23 12:37:36;;;;;;;3.95;3.17;;;21.30;99.90;;;;;;5116056;28;20600;-49
2023/07/23 12:40:04;;;;;;;3.25;2.85;;;21.30;99.90;;;;;;5116026;28;20580;-53
2023/07/23 12:42:33;;;;;;;3.50;3.15;;;21.10;99.90;;;;;;5115849;27;20184;-51
2023/07/23 12:44:59;;;;;;;3.70;2.95;;;21.10;99.90;;;;;;5115473;28;20673;-52